sensor_id;sensor_type;location;lat;lon;timestamp;temperature;humidity
8643;DHT22;4359;49.358;11.256;2022-12-16T00:00:21;-1.90;99.90
8643;DHT22;4359;49.358;11.256;2022-12-16T00:02:47;-1.90;99.90
8643;DHT22;4359;49.358;11.256;2022-12-16T00:05:12;-1.90;99.90
8643;DHT22;4359;49.358;11.256;2022-12-16T00:07:38;-2.00;99.90
8643;DHT22;4359;49.358;11.256;2022-12-16T00:10:03;-2.00;99.90
8643;DHT22;4359;49.358;11.256;2022-12-16T00:12:29;-2.00;99.90
8643;DHT22;4359;49.358;11.256;2022-12-16T00:14:54;-2.00;99.90
8643;DHT22;4359;49.358;11.256;2022-12-16T00:17:20;-2.00;99.90
8643;DHT22;4359;49.358;11.256;2022-12-16T00:19:45;-2.00;99.90
8643;DHT22;4359;49.358;11.256;2022-12-16T00:22:11;-2.00;99.90
8643;DHT22;4359;49.358;11.256;2022-12-16T00:24:36;-2.10;99.90
8643;DHT22;4359;49.358;11.256;2022-12-16T00:27:02;-2.10;99.90
8643;DHT22;4359;49.358;11.256;2022-12-16T00:29:28;-2.10;99.90
8643;DHT22;4359;49.358;11.256;2022-12-16T00:31:53;-2.10;99.90
8643;DHT22;4359;49.358;11.256;2022-12-16T00:34:19;-2.10;99.90
8643;DHT22;4359;49.358;11.256;2022-12-16T00:36:44;-2.10;99.90
8643;DHT22;4359;49.358;11.256;2022-12-16T00:39:10;-2.10;99.90
8643;DHT22;4359;49.358;11.256;2022-12-16T00:41:35;-2.10;99.90
8643;DHT22;4359;49.358;11.256;2022-12-16T00:44:01;-2.10;99.90
8643;DHT22;4359;49.358;11.256;2022-12-16T00:46:27;-2.00;99.90
8643;DHT22;4359;49.358;11.256;2022-12-16T00:48:52;-2.00;99.90
8643;DHT22;4359;49.358;11.256;2022-12-16T00:51:18;-2.00;99.90
8643;DHT22;4359;49.358;11.256;2022-12-16T00:53:43;-2.00;99.90
8643;DHT22;4359;49.358;11.256;2022-12-16T00:56:09;-2.10;99.90
8643;DHT22;4359;49.358;11.256;2022-12-16T00:58:35;-2.10;99.90
8643;DHT22;4359;49.358;11.256;2022-12-16T01:01:01;-2.10;99.90
8643;DHT22;4359;49.358;11.256;2022-12-16T01:03:27;-2.10;99.90
8643;DHT22;4359;49.358;11.256;2022-12-16T01:05:53;-2.10;99.90
8643;DHT22;4359;49.358;11.256;2022-12-16T01:08:18;-2.10;99.90
8643;DHT22;4359;49.358;11.256;2022-12-16T01:10:51;-2.20;99.90
8643;DHT22;4359;49.358;11.256;2022-12-16T01:13:16;-2.10;99.90
8643;DHT22;4359;49.358;11.256;2022-12-16T01:15:42;-2.10;99.90
8643;DHT22;4359;49.358;11.256;2022-12-16T01:18:08;-2.10;99.90
8643;DHT22;4359;49.358;11.256;2022-12-16T01:20:33;-2.10;99.90
8643;DHT22;4359;49.358;11.256;2022-12-16T01:22:59;-2.20;99.90
8643;DHT22;4359;49.358;11.256;2022-12-16T01:25:25;-2.20;99.90
8643;DHT22;4359;49.358;11.256;2022-12-16T01:27:50;-2.20;99.90
8643;DHT22;4359;49.358;11.256;2022-12-16T01:30:16;-2.20;99.90
8643;DHT22;4359;49.358;11.256;2022-12-16T01:32:41;-2.20;99.90
8643;DHT22;4359;49.358;11.256;2022-12-16T01:35:07;-2.30;99.90
8643;DHT22;4359;49.358;11.256;2022-12-16T01:37:33;-2.30;99.90
8643;DHT22;4359;49.358;11.256;2022-12-16T01:39:58;-2.30;99.90
8643;DHT22;4359;49.358;11.256;2022-12-16T01:42:24;-2.30;99.90
8643;DHT22;4359;49.358;11.256;2022-12-16T01:44:53;-2.30;99.90
8643;DHT22;4359;49.358;11.256;2022-12-16T01:47:20;-2.30;99.90
8643;DHT22;4359;49.358;11.256;2022-12-16T01:49:48;-2.40;99.90
8643;DHT22;4359;49.358;11.256;2022-12-16T01:52:17;-2.30;99.90
8643;DHT22;4359;49.358;11.256;2022-12-16T01:54:49;-2.30;99.90
8643;DHT22;4359;49.358;11.256;2022-12-16T01:57:17;-2.40;99.90
8643;DHT22;4359;49.358;11.256;2022-12-16T01:59:44;-2.40;99.90
8643;DHT22;4359;49.358;11.256;2022-12-16T02:02:11;-2.40;99.90
8643;DHT22;4359;49.358;11.256;2022-12-16T02:04:37;-2.40;99.90
8643;DHT22;4359;49.358;11.256;2022-12-16T02:07:26;-2.40;99.90
8643;DHT22;4359;49.358;11.256;2022-12-16T02:09:52;-2.40;99.90
8643;DHT22;4359;49.358;11.256;2022-12-16T02:12:22;-2.40;99.90
8643;DHT22;4359;49.358;11.256;2022-12-16T02:27:55;-2.40;99.90
8643;DHT22;4359;49.358;11.256;2022-12-16T02:30:25;-2.50;99.90
8643;DHT22;4359;49.358;11.256;2022-12-16T02:37:49;-2.50;99.90
8643;DHT22;4359;49.358;11.256;2022-12-16T02:42:50;-2.50;99.90
8643;DHT22;4359;49.358;11.256;2022-12-16T02:45:22;-2.50;99.90
8643;DHT22;4359;49.358;11.256;2022-12-16T02:47:49;-2.50;99.90
8643;DHT22;4359;49.358;11.256;2022-12-16T02:50:22;-2.50;99.90
8643;DHT22;4359;49.358;11.256;2022-12-16T02:52:50;-2.50;99.90
8643;DHT22;4359;49.358;11.256;2022-12-16T02:55:17;-2.50;99.90
8643;DHT22;4359;49.358;11.256;2022-12-16T02:58:26;-2.50;99.90
8643;DHT22;4359;49.358;11.256;2022-12-16T03:00:36;-2.60;99.90
8643;DHT22;4359;49.358;11.256;2022-12-16T03:03:09;-2.60;99.90
8643;DHT22;4359;49.358;11.256;2022-12-16T03:05:38;-2.60;99.90
8643;DHT22;4359;49.358;11.256;2022-12-16T03:08:08;-2.60;99.90
8643;DHT22;4359;49.358;11.256;2022-12-16T03:10:40;-2.60;99.90
8643;DHT22;4359;49.358;11.256;2022-12-16T03:13:07;-2.60;99.90
8643;DHT22;4359;49.358;11.256;2022-12-16T03:15:34;-2.60;99.90
8643;DHT22;4359;49.358;11.256;2022-12-16T03:18:01;-2.60;99.90
8643;DHT22;4359;49.358;11.256;2022-12-16T03:20:30;-2.60;99.90
8643;DHT22;4359;49.358;11.256;2022-12-16T03:22:58;-2.60;99.90
8643;DHT22;4359;49.358;11.256;2022-12-16T03:25:26;-2.50;99.90
8643;DHT22;4359;49.358;11.256;2022-12-16T03:28:03;-2.60;99.90
8643;DHT22;4359;49.358;11.256;2022-12-16T03:30:33;-2.60;99.90
8643;DHT22;4359;49.358;11.256;2022-12-16T03:35:38;-2.60;99.90
8643;DHT22;4359;49.358;11.256;2022-12-16T03:38:05;-2.60;99.90
8643;DHT22;4359;49.358;11.256;2022-12-16T03:40:32;-2.60;99.90
8643;DHT22;4359;49.358;11.256;2022-12-16T03:42:59;-2.60;99.90
8643;DHT22;4359;49.358;11.256;2022-12-16T03:45:26;-2.70;99.90
8643;DHT22;4359;49.358;11.256;2022-12-16T03:47:55;-2.60;99.90
8643;DHT22;4359;49.358;11.256;2022-12-16T03:50:24;-2.70;99.90
8643;DHT22;4359;49.358;11.256;2022-12-16T03:52:50;-2.70;99.90
8643;DHT22;4359;49.358;11.256;2022-12-16T03:55:16;-2.80;99.90
8643;DHT22;4359;49.358;11.256;2022-12-16T03:57:41;-2.80;99.90
8643;DHT22;4359;49.358;11.256;2022-12-16T04:00:07;-2.80;99.90
8643;DHT22;4359;49.358;11.256;2022-12-16T04:02:33;-2.80;99.90
8643;DHT22;4359;49.358;11.256;2022-12-16T04:04:59;-2.80;99.90
8643;DHT22;4359;49.358;11.256;2022-12-16T04:07:24;-2.90;99.90
8643;DHT22;4359;49.358;11.256;2022-12-16T04:09:50;-2.90;99.90
8643;DHT22;4359;49.358;11.256;2022-12-16T04:12:16;-2.90;99.90
8643;DHT22;4359;49.358;11.256;2022-12-16T04:15:00;-2.90;99.90
8643;DHT22;4359;49.358;11.256;2022-12-16T04:17:44;-2.90;99.90
8643;DHT22;4359;49.358;11.256;2022-12-16T04:20:36;-2.90;99.90
8643;DHT22;4359;49.358;11.256;2022-12-16T04:23:21;-2.90;99.90
8643;DHT22;4359;49.358;11.256;2022-12-16T04:26:07;-2.80;99.90
8643;DHT22;4359;49.358;11.256;2022-12-16T04:28:33;-2.90;99.90
8643;DHT22;4359;49.358;11.256;2022-12-16T04:30:58;-2.90;99.90
8643;DHT22;4359;49.358;11.256;2022-12-16T04:33:24;-2.90;99.90
8643;DHT22;4359;49.358;11.256;2022-12-16T04:36:08;-2.90;99.90
8643;DHT22;4359;49.358;11.256;2022-12-16T04:38:52;-2.90;99.90
8643;DHT22;4359;49.358;11.256;2022-12-16T04:41:36;-3.00;99.90
8643;DHT22;4359;49.358;11.256;2022-12-16T04:44:21;-2.90;99.90
8643;DHT22;4359;49.358;11.256;2022-12-16T04:47:05;-2.90;99.90
8643;DHT22;4359;49.358;11.256;2022-12-16T04:49:49;-2.90;99.90
8643;DHT22;4359;49.358;11.256;2022-12-16T04:52:33;-2.90;99.90
8643;DHT22;4359;49.358;11.256;2022-12-16T04:55:17;-3.00;99.90
8643;DHT22;4359;49.358;11.256;2022-12-16T04:58:02;-2.90;99.90
8643;DHT22;4359;49.358;11.256;2022-12-16T05:00:46;-2.90;99.90
8643;DHT22;4359;49.358;11.256;2022-12-16T05:03:31;-2.90;99.90
8643;DHT22;4359;49.358;11.256;2022-12-16T05:06:15;-2.80;99.90
8643;DHT22;4359;49.358;11.256;2022-12-16T05:08:59;-2.90;99.90
8643;DHT22;4359;49.358;11.256;2022-12-16T05:11:43;-2.90;99.90
8643;DHT22;4359;49.358;11.256;2022-12-16T05:14:27;-2.90;99.90
8643;DHT22;4359;49.358;11.256;2022-12-16T05:17:11;-2.90;99.90
8643;DHT22;4359;49.358;11.256;2022-12-16T05:19:56;-2.90;99.90
8643;DHT22;4359;49.358;11.256;2022-12-16T05:22:40;-2.90;99.90
8643;DHT22;4359;49.358;11.256;2022-12-16T05:25:24;-2.90;99.90
8643;DHT22;4359;49.358;11.256;2022-12-16T05:28:08;-2.90;99.90
8643;DHT22;4359;49.358;11.256;2022-12-16T05:30:53;-2.90;99.90
8643;DHT22;4359;49.358;11.256;2022-12-16T05:33:37;-2.90;99.90
8643;DHT22;4359;49.358;11.256;2022-12-16T05:36:21;-2.90;99.90
8643;DHT22;4359;49.358;11.256;2022-12-16T05:39:05;-2.90;99.90
8643;DHT22;4359;49.358;11.256;2022-12-16T05:41:49;-2.90;99.90
8643;DHT22;4359;49.358;11.256;2022-12-16T05:44:34;-2.90;99.90
8643;DHT22;4359;49.358;11.256;2022-12-16T05:47:18;-2.90;99.90
8643;DHT22;4359;49.358;11.256;2022-12-16T05:50:03;-2.90;99.90
8643;DHT22;4359;49.358;11.256;2022-12-16T05:52:51;-2.90;99.90
8643;DHT22;4359;49.358;11.256;2022-12-16T05:55:35;-2.90;99.90
8643;DHT22;4359;49.358;11.256;2022-12-16T05:58:24;-2.90;99.90
8643;DHT22;4359;49.358;11.256;2022-12-16T06:01:08;-2.90;99.90
8643;DHT22;4359;49.358;11.256;2022-12-16T06:03:52;-2.90;99.90
8643;DHT22;4359;49.358;11.256;2022-12-16T06:06:36;-2.90;99.90
8643;DHT22;4359;49.358;11.256;2022-12-16T06:09:20;-2.90;99.90
8643;DHT22;4359;49.358;11.256;2022-12-16T06:12:04;-2.90;99.90
8643;DHT22;4359;49.358;11.256;2022-12-16T06:14:49;-2.80;99.90
8643;DHT22;4359;49.358;11.256;2022-12-16T06:17:33;-2.90;99.90
8643;DHT22;4359;49.358;11.256;2022-12-16T06:20:17;-2.90;99.90
8643;DHT22;4359;49.358;11.256;2022-12-16T06:23:01;-2.90;99.90
8643;DHT22;4359;49.358;11.256;2022-12-16T06:25:45;-2.90;99.90
8643;DHT22;4359;49.358;11.256;2022-12-16T06:28:29;-2.90;99.90
8643;DHT22;4359;49.358;11.256;2022-12-16T06:31:14;-2.80;99.90
8643;DHT22;4359;49.358;11.256;2022-12-16T06:33:58;-2.80;99.90
8643;DHT22;4359;49.358;11.256;2022-12-16T06:36:42;-2.80;99.90
8643;DHT22;4359;49.358;11.256;2022-12-16T06:39:26;-2.80;99.90
8643;DHT22;4359;49.358;11.256;2022-12-16T06:42:11;-2.80;99.90
8643;DHT22;4359;49.358;11.256;2022-12-16T06:44:55;-2.80;99.90
8643;DHT22;4359;49.358;11.256;2022-12-16T06:47:41;-2.80;99.90
8643;DHT22;4359;49.358;11.256;2022-12-16T06:50:25;-2.80;99.90
8643;DHT22;4359;49.358;11.256;2022-12-16T06:53:09;-2.80;99.90
8643;DHT22;4359;49.358;11.256;2022-12-16T06:55:53;-2.80;99.90
8643;DHT22;4359;49.358;11.256;2022-12-16T06:58:37;-2.80;99.90
8643;DHT22;4359;49.358;11.256;2022-12-16T07:01:22;-2.80;99.90
8643;DHT22;4359;49.358;11.256;2022-12-16T07:04:06;-2.80;99.90
8643;DHT22;4359;49.358;11.256;2022-12-16T07:06:50;-2.80;99.90
8643;DHT22;4359;49.358;11.256;2022-12-16T07:09:35;-2.80;99.90
8643;DHT22;4359;49.358;11.256;2022-12-16T07:12:19;-2.80;99.90
8643;DHT22;4359;49.358;11.256;2022-12-16T07:15:03;-2.70;99.90
8643;DHT22;4359;49.358;11.256;2022-12-16T07:17:47;-2.70;99.90
8643;DHT22;4359;49.358;11.256;2022-12-16T07:20:32;-2.70;99.90
8643;DHT22;4359;49.358;11.256;2022-12-16T07:23:16;-2.70;99.90
8643;DHT22;4359;49.358;11.256;2022-12-16T07:26:00;-2.70;99.90
8643;DHT22;4359;49.358;11.256;2022-12-16T07:28:45;-2.70;99.90
8643;DHT22;4359;49.358;11.256;2022-12-16T07:31:29;-2.70;99.90
8643;DHT22;4359;49.358;11.256;2022-12-16T07:34:13;-2.60;99.90
8643;DHT22;4359;49.358;11.256;2022-12-16T07:36:57;-2.60;99.90
8643;DHT22;4359;49.358;11.256;2022-12-16T07:39:42;-2.60;99.90
8643;DHT22;4359;49.358;11.256;2022-12-16T07:42:26;-2.50;99.90
8643;DHT22;4359;49.358;11.256;2022-12-16T07:45:10;-2.50;99.90
8643;DHT22;4359;49.358;11.256;2022-12-16T07:47:54;-2.40;99.90
8643;DHT22;4359;49.358;11.256;2022-12-16T07:50:39;-2.40;99.90
8643;DHT22;4359;49.358;11.256;2022-12-16T07:53:23;-2.20;99.90
8643;DHT22;4359;49.358;11.256;2022-12-16T07:56:07;-2.20;99.90
8643;DHT22;4359;49.358;11.256;2022-12-16T07:58:51;-2.10;99.90
8643;DHT22;4359;49.358;11.256;2022-12-16T08:01:35;-2.10;99.90
8643;DHT22;4359;49.358;11.256;2022-12-16T08:04:19;-2.00;99.90
8643;DHT22;4359;49.358;11.256;2022-12-16T08:07:04;-2.00;99.90
8643;DHT22;4359;49.358;11.256;2022-12-16T08:09:48;-1.90;99.90
8643;DHT22;4359;49.358;11.256;2022-12-16T08:12:32;-1.90;99.90
8643;DHT22;4359;49.358;11.256;2022-12-16T08:15:16;-1.80;99.90
8643;DHT22;4359;49.358;11.256;2022-12-16T08:18:01;-1.70;99.90
8643;DHT22;4359;49.358;11.256;2022-12-16T08:20:45;-1.70;99.90
8643;DHT22;4359;49.358;11.256;2022-12-16T08:23:29;-1.60;99.90
8643;DHT22;4359;49.358;11.256;2022-12-16T08:26:13;-1.50;99.90
8643;DHT22;4359;49.358;11.256;2022-12-16T08:28:57;-1.50;99.90
8643;DHT22;4359;49.358;11.256;2022-12-16T08:31:41;-1.40;99.90
8643;DHT22;4359;49.358;11.256;2022-12-16T08:34:26;-1.40;99.90
8643;DHT22;4359;49.358;11.256;2022-12-16T08:37:10;-1.40;99.90
8643;DHT22;4359;49.358;11.256;2022-12-16T08:39:54;-1.40;99.90
8643;DHT22;4359;49.358;11.256;2022-12-16T08:42:38;-1.40;99.90
8643;DHT22;4359;49.358;11.256;2022-12-16T08:45:22;-1.40;99.90
8643;DHT22;4359;49.358;11.256;2022-12-16T08:48:06;-1.40;99.90
8643;DHT22;4359;49.358;11.256;2022-12-16T08:50:50;-1.40;99.90
8643;DHT22;4359;49.358;11.256;2022-12-16T08:53:35;-1.30;99.90
8643;DHT22;4359;49.358;11.256;2022-12-16T08:56:19;-1.30;99.90
8643;DHT22;4359;49.358;11.256;2022-12-16T08:59:03;-1.40;99.90
8643;DHT22;4359;49.358;11.256;2022-12-16T09:01:47;-1.40;99.90
8643;DHT22;4359;49.358;11.256;2022-12-16T09:04:32;-1.40;99.90
8643;DHT22;4359;49.358;11.256;2022-12-16T09:07:16;-1.40;99.90
8643;DHT22;4359;49.358;11.256;2022-12-16T09:10:00;-1.40;99.90
8643;DHT22;4359;49.358;11.256;2022-12-16T09:12:44;-1.30;99.90
8643;DHT22;4359;49.358;11.256;2022-12-16T09:15:28;-1.20;99.90
8643;DHT22;4359;49.358;11.256;2022-12-16T09:18:13;-1.00;99.90
8643;DHT22;4359;49.358;11.256;2022-12-16T09:20:57;-0.90;99.90
8643;DHT22;4359;49.358;11.256;2022-12-16T09:23:41;-0.70;99.90
8643;DHT22;4359;49.358;11.256;2022-12-16T09:26:36;-0.50;99.90
8643;DHT22;4359;49.358;11.256;2022-12-16T09:29:20;-0.40;99.90
8643;DHT22;4359;49.358;11.256;2022-12-16T09:32:04;-0.10;99.90
8643;DHT22;4359;49.358;11.256;2022-12-16T09:34:48;-0.10;99.90
8643;DHT22;4359;49.358;11.256;2022-12-16T09:37:33;-0.10;99.90
8643;DHT22;4359;49.358;11.256;2022-12-16T09:40:17;-0.10;99.90
8643;DHT22;4359;49.358;11.256;2022-12-16T09:43:12;0.00;99.90
8643;DHT22;4359;49.358;11.256;2022-12-16T09:46:09;-0.10;99.90
8643;DHT22;4359;49.358;11.256;2022-12-16T09:49:00;-0.20;99.90
8643;DHT22;4359;49.358;11.256;2022-12-16T09:51:48;-0.10;99.90
8643;DHT22;4359;49.358;11.256;2022-12-16T09:54:34;-0.20;99.90
8643;DHT22;4359;49.358;11.256;2022-12-16T09:57:18;-0.30;99.90
8643;DHT22;4359;49.358;11.256;2022-12-16T10:00:04;-0.30;99.90
8643;DHT22;4359;49.358;11.256;2022-12-16T10:02:49;-0.20;99.90
8643;DHT22;4359;49.358;11.256;2022-12-16T10:06:07;-0.20;99.90
8643;DHT22;4359;49.358;11.256;2022-12-16T10:08:45;-0.20;99.90
8643;DHT22;4359;49.358;11.256;2022-12-16T10:11:42;-0.20;99.90
8643;DHT22;4359;49.358;11.256;2022-12-16T10:14:34;-0.20;99.90
8643;DHT22;4359;49.358;11.256;2022-12-16T10:17:23;-0.20;99.90
8643;DHT22;4359;49.358;11.256;2022-12-16T10:20:13;-0.20;99.90
8643;DHT22;4359;49.358;11.256;2022-12-16T10:23:14;0.00;99.90
8643;DHT22;4359;49.358;11.256;2022-12-16T10:26:12;0.00;99.90
8643;DHT22;4359;49.358;11.256;2022-12-16T10:28:59;0.10;99.90
8643;DHT22;4359;49.358;11.256;2022-12-16T10:34:29;0.10;99.90
8643;DHT22;4359;49.358;11.256;2022-12-16T10:37:15;0.00;99.90
8643;DHT22;4359;49.358;11.256;2022-12-16T10:40:00;-0.10;99.90
8643;DHT22;4359;49.358;11.256;2022-12-16T10:42:50;0.00;99.90
8643;DHT22;4359;49.358;11.256;2022-12-16T10:45:40;-0.10;99.90
8643;DHT22;4359;49.358;11.256;2022-12-16T10:48:25;-0.10;99.90
8643;DHT22;4359;49.358;11.256;2022-12-16T10:51:11;-0.10;99.90
8643;DHT22;4359;49.358;11.256;2022-12-16T10:53:55;0.00;99.90
8643;DHT22;4359;49.358;11.256;2022-12-16T10:56:53;0.00;99.90
8643;DHT22;4359;49.358;11.256;2022-12-16T10:59:39;0.00;99.90
8643;DHT22;4359;49.358;11.256;2022-12-16T11:02:24;0.10;99.90
8643;DHT22;4359;49.358;11.256;2022-12-16T11:08:08;0.30;99.90
8643;DHT22;4359;49.358;11.256;2022-12-16T11:11:11;0.20;99.90
8643;DHT22;4359;49.358;11.256;2022-12-16T11:14:03;0.30;99.90
8643;DHT22;4359;49.358;11.256;2022-12-16T11:17:06;0.30;99.90
8643;DHT22;4359;49.358;11.256;2022-12-16T11:20:04;0.30;99.90
8643;DHT22;4359;49.358;11.256;2022-12-16T11:22:54;0.60;99.90
8643;DHT22;4359;49.358;11.256;2022-12-16T11:26:01;0.80;99.90
8643;DHT22;4359;49.358;11.256;2022-12-16T11:28:47;0.50;99.90
8643;DHT22;4359;49.358;11.256;2022-12-16T11:31:34;0.40;99.90
8643;DHT22;4359;49.358;11.256;2022-12-16T11:34:18;0.50;99.90
8643;DHT22;4359;49.358;11.256;2022-12-16T11:37:02;0.60;99.90
8643;DHT22;4359;49.358;11.256;2022-12-16T11:39:47;0.80;99.90
8643;DHT22;4359;49.358;11.256;2022-12-16T11:42:31;0.70;99.90
8643;DHT22;4359;49.358;11.256;2022-12-16T11:45:17;0.60;99.90
8643;DHT22;4359;49.358;11.256;2022-12-16T11:48:05;0.60;99.90
8643;DHT22;4359;49.358;11.256;2022-12-16T11:50:52;0.70;99.90
8643;DHT22;4359;49.358;11.256;2022-12-16T11:56:23;0.60;99.90
8643;DHT22;4359;49.358;11.256;2022-12-16T12:01:59;0.60;99.90
8643;DHT22;4359;49.358;11.256;2022-12-16T12:04:47;0.50;99.90
8643;DHT22;4359;49.358;11.256;2022-12-16T12:07:40;0.30;99.90
8643;DHT22;4359;49.358;11.256;2022-12-16T12:13:20;0.10;99.90
8643;DHT22;4359;49.358;11.256;2022-12-16T12:16:08;0.00;99.90
8643;DHT22;4359;49.358;11.256;2022-12-16T12:18:59;-0.10;99.90
8643;DHT22;4359;49.358;11.256;2022-12-16T12:24:40;0.00;99.90
8643;DHT22;4359;49.358;11.256;2022-12-16T12:27:29;-0.10;99.90
8643;DHT22;4359;49.358;11.256;2022-12-16T12:30:19;-0.20;99.90
8643;DHT22;4359;49.358;11.256;2022-12-16T12:42:26;-0.50;99.90
8643;DHT22;4359;49.358;11.256;2022-12-16T12:51:06;-0.80;99.90
8643;DHT22;4359;49.358;11.256;2022-12-16T12:57:14;-1.10;99.90
8643;DHT22;4359;49.358;11.256;2022-12-16T13:02:51;-1.30;99.90
8643;DHT22;4359;49.358;11.256;2022-12-16T13:05:38;-1.20;99.90
8643;DHT22;4359;49.358;11.256;2022-12-16T13:11:25;-1.30;99.90
8643;DHT22;4359;49.358;11.256;2022-12-16T13:17:13;-1.30;99.90
8643;DHT22;4359;49.358;11.256;2022-12-16T13:19:57;-1.30;99.90
8643;DHT22;4359;49.358;11.256;2022-12-16T13:22:42;-1.30;99.90
8643;DHT22;4359;49.358;11.256;2022-12-16T13:31:05;-1.40;99.90
8643;DHT22;4359;49.358;11.256;2022-12-16T13:33:51;-1.40;99.90
8643;DHT22;4359;49.358;11.256;2022-12-16T13:36:35;-1.40;99.90
8643;DHT22;4359;49.358;11.256;2022-12-16T13:39:26;-1.50;99.90
8643;DHT22;4359;49.358;11.256;2022-12-16T13:45:14;-1.50;99.90
8643;DHT22;4359;49.358;11.256;2022-12-16T13:48:24;-1.60;99.90
8643;DHT22;4359;49.358;11.256;2022-12-16T13:51:16;-1.50;99.90
8643;DHT22;4359;49.358;11.256;2022-12-16T13:54:13;-1.50;99.90
8643;DHT22;4359;49.358;11.256;2022-12-16T13:56:57;-1.40;99.90
8643;DHT22;4359;49.358;11.256;2022-12-16T13:59:42;-1.40;99.90
8643;DHT22;4359;49.358;11.256;2022-12-16T14:05:27;-1.50;99.90
8643;DHT22;4359;49.358;11.256;2022-12-16T14:08:15;-1.60;99.90
8643;DHT22;4359;49.358;11.256;2022-12-16T14:11:01;-1.50;99.90
8643;DHT22;4359;49.358;11.256;2022-12-16T14:13:57;-1.60;99.90
8643;DHT22;4359;49.358;11.256;2022-12-16T14:16:51;-1.70;99.90
8643;DHT22;4359;49.358;11.256;2022-12-16T14:25:22;-1.80;99.90
8643;DHT22;4359;49.358;11.256;2022-12-16T14:28:12;-1.80;99.90
8643;DHT22;4359;49.358;11.256;2022-12-16T14:31:02;-1.90;99.90
8643;DHT22;4359;49.358;11.256;2022-12-16T14:33:54;-1.90;99.90
8643;DHT22;4359;49.358;11.256;2022-12-16T14:36:38;-1.90;99.90
8643;DHT22;4359;49.358;11.256;2022-12-16T14:39:27;-2.00;99.90
8643;DHT22;4359;49.358;11.256;2022-12-16T14:42:14;-2.00;99.90
8643;DHT22;4359;49.358;11.256;2022-12-16T14:45:01;-2.00;99.90
8643;DHT22;4359;49.358;11.256;2022-12-16T14:47:45;-2.00;99.90
8643;DHT22;4359;49.358;11.256;2022-12-16T14:50:29;-2.10;99.90
8643;DHT22;4359;49.358;11.256;2022-12-16T14:53:15;-2.10;99.90
8643;DHT22;4359;49.358;11.256;2022-12-16T14:56:12;-2.10;99.90
8643;DHT22;4359;49.358;11.256;2022-12-16T14:59:13;-2.10;99.90
8643;DHT22;4359;49.358;11.256;2022-12-16T15:01:57;-2.10;99.90
8643;DHT22;4359;49.358;11.256;2022-12-16T15:04:43;-2.20;99.90
8643;DHT22;4359;49.358;11.256;2022-12-16T15:07:28;-2.20;99.90
8643;DHT22;4359;49.358;11.256;2022-12-16T15:10:17;-2.20;99.90
8643;DHT22;4359;49.358;11.256;2022-12-16T15:13:04;-2.20;99.90
8643;DHT22;4359;49.358;11.256;2022-12-16T15:15:48;-2.30;99.90
8643;DHT22;4359;49.358;11.256;2022-12-16T15:18:34;-2.30;99.90
8643;DHT22;4359;49.358;11.256;2022-12-16T15:21:21;-2.30;99.90
8643;DHT22;4359;49.358;11.256;2022-12-16T15:24:08;-2.40;99.90
8643;DHT22;4359;49.358;11.256;2022-12-16T15:27:21;-2.40;99.90
8643;DHT22;4359;49.358;11.256;2022-12-16T15:33:11;-2.40;99.90
8643;DHT22;4359;49.358;11.256;2022-12-16T15:35:59;-2.40;99.90
8643;DHT22;4359;49.358;11.256;2022-12-16T15:38:44;-2.40;99.90
8643;DHT22;4359;49.358;11.256;2022-12-16T15:41:29;-2.40;99.90
8643;DHT22;4359;49.358;11.256;2022-12-16T15:44:15;-2.40;99.90
8643;DHT22;4359;49.358;11.256;2022-12-16T15:46:59;-2.40;99.90
8643;DHT22;4359;49.358;11.256;2022-12-16T15:49:44;-2.50;99.90
8643;DHT22;4359;49.358;11.256;2022-12-16T15:55:23;-2.50;99.90
8643;DHT22;4359;49.358;11.256;2022-12-16T16:01:02;-2.60;99.90
8643;DHT22;4359;49.358;11.256;2022-12-16T16:03:47;-2.60;99.90
8643;DHT22;4359;49.358;11.256;2022-12-16T16:06:31;-2.50;99.90
8643;DHT22;4359;49.358;11.256;2022-12-16T16:09:19;-2.60;99.90
8643;DHT22;4359;49.358;11.256;2022-12-16T16:12:03;-2.50;99.90
8643;DHT22;4359;49.358;11.256;2022-12-16T16:14:47;-2.60;99.90
8643;DHT22;4359;49.358;11.256;2022-12-16T16:17:31;-2.60;99.90
8643;DHT22;4359;49.358;11.256;2022-12-16T16:20:16;-2.60;99.90
8643;DHT22;4359;49.358;11.256;2022-12-16T16:23:00;-2.60;99.90
8643;DHT22;4359;49.358;11.256;2022-12-16T16:25:46;-2.60;99.90
8643;DHT22;4359;49.358;11.256;2022-12-16T16:28:30;-2.60;99.90
8643;DHT22;4359;49.358;11.256;2022-12-16T16:31:14;-2.60;99.90
8643;DHT22;4359;49.358;11.256;2022-12-16T16:33:58;-2.60;99.90
8643;DHT22;4359;49.358;11.256;2022-12-16T16:36:42;-2.70;99.90
8643;DHT22;4359;49.358;11.256;2022-12-16T16:39:26;-2.70;99.90
8643;DHT22;4359;49.358;11.256;2022-12-16T16:42:11;-2.70;99.90
8643;DHT22;4359;49.358;11.256;2022-12-16T16:44:55;-2.70;99.90
8643;DHT22;4359;49.358;11.256;2022-12-16T16:47:39;-2.70;99.90
8643;DHT22;4359;49.358;11.256;2022-12-16T16:50:23;-2.70;99.90
8643;DHT22;4359;49.358;11.256;2022-12-16T16:53:12;-2.70;99.90
8643;DHT22;4359;49.358;11.256;2022-12-16T16:55:57;-2.80;99.90
8643;DHT22;4359;49.358;11.256;2022-12-16T16:58:41;-2.80;99.90
8643;DHT22;4359;49.358;11.256;2022-12-16T17:01:26;-2.70;99.90
8643;DHT22;4359;49.358;11.256;2022-12-16T17:04:10;-2.80;99.90
8643;DHT22;4359;49.358;11.256;2022-12-16T17:06:54;-2.80;99.90
8643;DHT22;4359;49.358;11.256;2022-12-16T17:09:38;-2.80;99.90
8643;DHT22;4359;49.358;11.256;2022-12-16T17:12:24;-2.90;99.90
8643;DHT22;4359;49.358;11.256;2022-12-16T17:17:56;-2.90;99.90
8643;DHT22;4359;49.358;11.256;2022-12-16T17:20:41;-2.90;99.90
8643;DHT22;4359;49.358;11.256;2022-12-16T17:23:25;-3.00;99.90
8643;DHT22;4359;49.358;11.256;2022-12-16T17:26:09;-3.00;99.90
8643;DHT22;4359;49.358;11.256;2022-12-16T17:28:53;-3.00;99.90
8643;DHT22;4359;49.358;11.256;2022-12-16T17:31:38;-3.10;99.90
8643;DHT22;4359;49.358;11.256;2022-12-16T17:34:22;-3.10;99.90
8643;DHT22;4359;49.358;11.256;2022-12-16T17:37:06;-3.20;99.90
8643;DHT22;4359;49.358;11.256;2022-12-16T17:39:50;-3.20;99.90
8643;DHT22;4359;49.358;11.256;2022-12-16T17:42:34;-3.30;99.90
8643;DHT22;4359;49.358;11.256;2022-12-16T17:45:19;-3.40;99.90
8643;DHT22;4359;49.358;11.256;2022-12-16T17:48:03;-3.40;99.90
8643;DHT22;4359;49.358;11.256;2022-12-16T17:50:47;-3.50;99.90
8643;DHT22;4359;49.358;11.256;2022-12-16T17:53:32;-3.50;99.90
8643;DHT22;4359;49.358;11.256;2022-12-16T17:56:16;-3.50;99.90
8643;DHT22;4359;49.358;11.256;2022-12-16T17:59:00;-3.50;99.90
8643;DHT22;4359;49.358;11.256;2022-12-16T18:01:44;-3.50;99.90
8643;DHT22;4359;49.358;11.256;2022-12-16T18:04:28;-3.50;99.90
8643;DHT22;4359;49.358;11.256;2022-12-16T18:07:13;-3.50;99.90
8643;DHT22;4359;49.358;11.256;2022-12-16T18:09:57;-3.50;99.90
8643;DHT22;4359;49.358;11.256;2022-12-16T18:12:41;-3.50;99.90
8643;DHT22;4359;49.358;11.256;2022-12-16T18:15:25;-3.50;99.90
8643;DHT22;4359;49.358;11.256;2022-12-16T18:18:09;-3.50;99.90
8643;DHT22;4359;49.358;11.256;2022-12-16T18:20:54;-3.60;99.90
8643;DHT22;4359;49.358;11.256;2022-12-16T18:23:38;-3.60;99.90
8643;DHT22;4359;49.358;11.256;2022-12-16T18:26:22;-3.70;99.90
8643;DHT22;4359;49.358;11.256;2022-12-16T18:29:06;-3.80;99.90
8643;DHT22;4359;49.358;11.256;2022-12-16T18:31:50;-3.80;99.90
8643;DHT22;4359;49.358;11.256;2022-12-16T18:34:35;-3.90;99.90
8643;DHT22;4359;49.358;11.256;2022-12-16T18:37:19;-3.90;99.90
8643;DHT22;4359;49.358;11.256;2022-12-16T18:40:03;-4.00;99.90
8643;DHT22;4359;49.358;11.256;2022-12-16T18:42:47;-4.10;99.90
8643;DHT22;4359;49.358;11.256;2022-12-16T18:45:32;-4.10;99.90
8643;DHT22;4359;49.358;11.256;2022-12-16T18:48:16;-4.20;99.90
8643;DHT22;4359;49.358;11.256;2022-12-16T18:51:00;-4.20;99.90
8643;DHT22;4359;49.358;11.256;2022-12-16T18:53:44;-4.20;99.90